Time;durP1;ratioP1;P1;durP2;ratioP2;P2;SDS_P1;SDS_P2;PMS_P1;PMS_P2;Temp;Humidity;BMP_temperature;BMP_pressure;BME280_temperature;BME280_humidity;BME280_pressure;Samples;Min_cycle;Max_cycle;Signal;HPM_P1;HPM_P2
2023/09/27 00:02:21;;;;;;;2.92;1.85;;;;;;;;;;5086308;28;20055;-58
2023/09/27 00:04:48;;;;;;;2.63;1.80;;;;;;;;;;5073248;28;20136;-56
2023/09/27 00:07:15;;;;;;;3.22;2.08;;;;;;;;;;5072915;28;20508;-56
2023/09/27 00:09:42;;;;;;;3.78;2.00;;;;;;;;;;5073499;28;20398;-56
2023/09/27 00:12:09;;;;;;;3.28;2.25;;;;;;;;;;5075494;28;20072;-58
2023/09/27 00:14:37;;;;;;;4.47;2.75;;;;;;;;;;5093041;28;20048;-59
2023/09/27 00:17:04;;;;;;;2.70;1.67;;;;;;;;;;5091800;28;20182;-57
2023/09/27 00:19:31;;;;;;;3.40;1.80;;;;;;;;;;5086973;28;20053;-56
2023/09/27 00:21:58;;;;;;;3.40;1.85;;;;;;;;;;5073236;28;20071;-57
2023/09/27 00:24:25;;;;;;;2.58;1.67;;;;;;;;;;5073501;28;20409;-57
2023/09/27 00:26:52;;;;;;;3.10;2.30;;;;;;;;;;5072875;28;20052;-58
2023/09/27 00:29:18;;;;;;;2.53;1.70;;;;;;;;;;5074934;28;20433;-57
2023/09/27 00:31:46;;;;;;;3.05;1.85;;;;;;;;;;5073045;28;20057;-57
2023/09/27 00:34:13;;;;;;;3.35;2.10;;;;;;;;;;5073333;28;20490;-56
2023/09/27 00:36:40;;;;;;;3.38;2.10;;;;;;;;;;5072722;28;20052;-57
2023/09/27 00:39:07;;;;;;;3.13;2.00;;;;;;;;;;5072990;28;20052;-57
2023/09/27 00:41:34;;;;;;;2.78;1.77;;;;;;;;;;5091279;28;20051;-57
2023/09/27 00:44:00;;;;;;;7.10;2.60;;;;;;;;;;5086933;28;20053;-58
2023/09/27 00:46:27;;;;;;;2.72;1.73;;;;;;;;;;5072849;28;20409;-57
2023/09/27 00:48:56;;;;;;;2.63;1.90;;;;;;;;;;5082580;28;20394;-57
2023/09/27 00:51:22;;;;;;;2.50;1.95;;;;;;;;;;5092837;28;20048;-57
2023/09/27 00:53:50;;;;;;;3.70;1.77;;;;;;;;;;5074186;28;20056;-57
2023/09/27 00:56:17;;;;;;;3.67;1.88;;;;;;;;;;5072621;28;20048;-57
2023/09/27 00:58:44;;;;;;;3.38;2.00;;;;;;;;;;5073465;28;20055;-57
2023/09/27 01:01:12;;;;;;;3.83;1.73;;;;;;;;;;5072801;28;20474;-57
2023/09/27 01:03:39;;;;;;;2.00;1.35;;;;;;;;;;5072703;28;20055;-57
2023/09/27 01:06:08;;;;;;;3.00;1.85;;;;;;;;;;5072883;28;20482;-57
2023/09/27 01:08:34;;;;;;;3.27;2.60;;;;;;;;;;5073203;28;20052;-57
2023/09/27 01:11:02;;;;;;;2.90;1.80;;;;;;;;;;5073337;28;20063;-57
2023/09/27 01:13:29;;;;;;;3.05;1.80;;;;;;;;;;5090131;28;20052;-56
2023/09/27 01:15:56;;;;;;;3.58;2.10;;;;;;;;;;5092421;28;20059;-58
2023/09/27 01:18:23;;;;;;;3.08;2.05;;;;;;;;;;5092552;28;20052;-57
2023/09/27 01:20:49;;;;;;;6.18;2.85;;;;;;;;;;5090893;28;20052;-57
2023/09/27 01:23:17;;;;;;;3.28;2.20;;;;;;;;;;5072880;28;20052;-57
2023/09/27 01:25:44;;;;;;;3.30;1.85;;;;;;;;;;5072407;28;20048;-57
2023/09/27 01:28:12;;;;;;;2.60;1.70;;;;;;;;;;5073594;28;20045;-57
2023/09/27 01:30:39;;;;;;;2.88;2.28;;;;;;;;;;5072290;28;20060;-56
2023/09/27 01:33:07;;;;;;;3.85;2.05;;;;;;;;;;5072605;28;20056;-57
2023/09/27 01:35:34;;;;;;;3.08;2.58;;;;;;;;;;5072540;28;20513;-57
2023/09/27 01:38:01;;;;;;;3.33;2.40;;;;;;;;;;5072373;28;20050;-57
2023/09/27 01:40:30;;;;;;;3.47;2.00;;;;;;;;;;5081583;28;20126;-57
2023/09/27 01:42:57;;;;;;;3.22;1.80;;;;;;;;;;5074191;28;20485;-57
2023/09/27 01:45:24;;;;;;;3.17;1.95;;;;;;;;;;5071846;28;20520;-57
2023/09/27 01:47:51;;;;;;;2.63;2.13;;;;;;;;;;5072577;28;20053;-57
2023/09/27 01:50:19;;;;;;;5.72;2.45;;;;;;;;;;5072228;28;20049;-57
2023/09/27 01:52:46;;;;;;;3.58;2.28;;;;;;;;;;5072984;28;20528;-57
2023/09/27 01:55:13;;;;;;;3.25;1.80;;;;;;;;;;5093062;28;20052;-57
2023/09/27 01:57:41;;;;;;;5.13;1.98;;;;;;;;;;5094692;28;20059;-57
2023/09/27 02:00:11;;;;;;;2.50;1.83;;;;;;;;;;5096307;28;20055;-57
2023/09/27 02:02:37;;;;;;;;;;;;;;;;;;5081284;28;20409;-57
2023/09/27 02:05:04;;;;;;;6.18;2.45;;;;;;;;;;5075998;28;19920;-57
2023/09/27 02:07:31;;;;;;;3.08;2.10;;;;;;;;;;5075850;28;20053;-57
2023/09/27 02:09:58;;;;;;;6.03;2.17;;;;;;;;;;5075763;28;20056;-57
2023/09/27 02:12:25;;;;;;;2.95;2.08;;;;;;;;;;5082442;28;20048;-57
2023/09/27 02:14:53;;;;;;;4.55;2.33;;;;;;;;;;5095901;28;20055;-57
2023/09/27 02:17:20;;;;;;;3.72;2.60;;;;;;;;;;5095760;28;20052;-57
2023/09/27 02:19:46;;;;;;;2.80;1.95;;;;;;;;;;5095951;28;20485;-57
2023/09/27 02:22:14;;;;;;;4.53;2.53;;;;;;;;;;5083871;28;20391;-57
2023/09/27 02:24:41;;;;;;;3.50;1.95;;;;;;;;;;5075109;28;20056;-57
2023/09/27 02:27:10;;;;;;;3.90;2.30;;;;;;;;;;5082783;28;20047;-57
2023/09/27 02:29:37;;;;;;;3.30;1.80;;;;;;;;;;5095732;28;20052;-57
2023/09/27 02:32:05;;;;;;;3.28;2.25;;;;;;;;;;5085145;28;20052;-57
2023/09/27 02:34:32;;;;;;;3.58;1.90;;;;;;;;;;5075295;28;20060;-57
2023/09/27 02:36:59;;;;;;;2.63;1.60;;;;;;;;;;5075022;28;20071;-56
2023/09/27 02:39:26;;;;;;;3.65;1.83;;;;;;;;;;5076676;28;21560;-57
2023/09/27 02:41:53;;;;;;;3.38;2.25;;;;;;;;;;5077297;28;20056;-57
2023/09/27 02:44:21;;;;;;;4.47;2.10;;;;;;;;;;5074948;28;20053;-57
2023/09/27 02:46:47;;;;;;;4.15;2.08;;;;;;;;;;5075181;28;20067;-57
2023/09/27 02:49:15;;;;;;;2.92;1.95;;;;;;;;;;5074849;28;20044;-57
2023/09/27 02:51:42;;;;;;;3.35;2.33;;;;;;;;;;5075010;28;20056;-57
2023/09/27 02:54:10;;;;;;;2.63;1.90;;;;;;;;;;5075207;28;20059;-57
2023/09/27 02:56:37;;;;;;;3.40;2.00;;;;;;;;;;5074490;28;20060;-57
2023/09/27 02:59:04;;;;;;;3.13;2.00;;;;;;;;;;5074833;28;20044;-58
2023/09/27 03:01:31;;;;;;;3.70;2.10;;;;;;;;;;5074709;28;20057;-57
2023/09/27 03:03:57;;;;;;;3.53;2.10;;;;;;;;;;5073823;28;20055;-57
2023/09/27 03:06:25;;;;;;;3.60;2.40;;;;;;;;;;5074261;28;20052;-57
2023/09/27 03:08:53;;;;;;;4.22;2.53;;;;;;;;;;5073965;28;20045;-57
2023/09/27 03:11:20;;;;;;;4.30;2.45;;;;;;;;;;5074617;28;20068;-57
2023/09/27 03:13:46;;;;;;;3.03;2.20;;;;;;;;;;5073678;28;20052;-57
2023/09/27 03:16:14;;;;;;;5.10;2.20;;;;;;;;;;5074387;28;20063;-57
2023/09/27 03:18:41;;;;;;;4.10;1.85;;;;;;;;;;5074541;28;20063;-57
2023/09/27 03:21:07;;;;;;;3.58;2.25;;;;;;;;;;5074153;28;20060;-57
2023/09/27 03:23:36;;;;;;;6.10;2.10;;;;;;;;;;5073621;28;20052;-57
2023/09/27 03:26:04;;;;;;;4.78;2.05;;;;;;;;;;5074342;28;20056;-57
2023/09/27 03:28:31;;;;;;;3.60;2.45;;;;;;;;;;5073482;28;20401;-57
2023/09/27 03:30:57;;;;;;;3.53;2.45;;;;;;;;;;5074245;28;20481;-57
2023/09/27 03:33:25;;;;;;;3.67;2.40;;;;;;;;;;5073846;28;20060;-57
2023/09/27 03:35:53;;;;;;;3.30;2.45;;;;;;;;;;5074031;28;20048;-57
2023/09/27 03:38:20;;;;;;;2.92;2.13;;;;;;;;;;5085146;28;20052;-57
2023/09/27 03:40:49;;;;;;;2.60;1.85;;;;;;;;;;5094161;28;20051;-57
2023/09/27 03:43:17;;;;;;;2.65;1.98;;;;;;;;;;5092333;28;20374;-57
2023/09/27 03:45:44;;;;;;;3.28;2.20;;;;;;;;;;5093921;28;20052;-57
2023/09/27 03:48:10;;;;;;;2.97;2.30;;;;;;;;;;5094488;28;20056;-57
2023/09/27 03:50:37;;;;;;;3.40;2.10;;;;;;;;;;5094222;28;20052;-57
2023/09/27 03:53:04;;;;;;;5.03;2.53;;;;;;;;;;5084039;28;20044;-57
2023/09/27 03:55:31;;;;;;;3.97;2.15;;;;;;;;;;5073905;28;20048;-58
2023/09/27 03:57:59;;;;;;;2.95;1.70;;;;;;;;;;5074523;28;20059;-58
2023/09/27 04:00:26;;;;;;;3.85;2.28;;;;;;;;;;5074725;28;20504;-57
2023/09/27 04:02:53;;;;;;;2.90;2.15;;;;;;;;;;5073931;28;20397;-57
2023/09/27 04:05:23;;;;;;;6.03;2.58;;;;;;;;;;5073884;28;20401;-58
2023/09/27 04:07:49;;;;;;;;;;;;;;;;;;5074323;28;20489;-58
2023/09/27 04:10:17;;;;;;;3.72;2.20;;;;;;;;;;5073190;28;19974;-58
2023/09/27 04:12:43;;;;;;;3.30;2.10;;;;;;;;;;5073963;28;20063;-58
2023/09/27 04:15:12;;;;;;;3.40;2.20;;;;;;;;;;5073396;28;20486;-58
2023/09/27 04:17:39;;;;;;;4.68;2.35;;;;;;;;;;5074317;28;20048;-58
2023/09/27 04:20:13;;;;;;;3.72;2.55;;;;;;;;;;5073431;28;20398;-58
2023/09/27 04:22:41;;;;;;;4.03;2.10;;;;;;;;;;5073357;28;20052;-58
2023/09/27 04:25:09;;;;;;;3.58;2.42;;;;;;;;;;5073138;28;20055;-58
2023/09/27 04:27:35;;;;;;;3.42;2.05;;;;;;;;;;5088282;28;20051;-59
2023/09/27 04:30:04;;;;;;;4.00;2.20;;;;;;;;;;5090728;28;20048;-58
2023/09/27 04:32:32;;;;;;;6.82;2.83;;;;;;;;;;5093053;28;20453;-58
2023/09/27 04:34:59;;;;;;;3.25;2.13;;;;;;;;;;5093012;28;20055;-58
2023/09/27 04:37:25;;;;;;;7.45;2.83;;;;;;;;;;5078430;28;20056;-58
2023/09/27 04:39:52;;;;;;;3.70;2.47;;;;;;;;;;5074644;28;20052;-57
2023/09/27 04:42:19;;;;;;;2.85;2.10;;;;;;;;;;5074315;28;20052;-58
2023/09/27 04:44:46;;;;;;;3.40;1.88;;;;;;;;;;5072609;28;20068;-56
2023/09/27 04:47:12;;;;;;;3.50;2.28;;;;;;;;;;5088108;28;20055;-57
2023/09/27 04:49:41;;;;;;;3.33;2.05;;;;;;;;;;5089295;28;20051;-57
2023/09/27 04:52:07;;;;;;;4.30;2.03;;;;;;;;;;5092594;28;20063;-56
2023/09/27 04:54:34;;;;;;;3.63;1.95;;;;;;;;;;5091865;28;20063;-58
2023/09/27 04:57:01;;;;;;;2.40;1.38;;;;;;;;;;5076002;28;20132;-57
2023/09/27 04:59:28;;;;;;;4.03;1.95;;;;;;;;;;5075801;28;20044;-57
2023/09/27 05:01:54;;;;;;;4.03;2.38;;;;;;;;;;5073345;28;20531;-57
2023/09/27 05:04:21;;;;;;;5.10;1.90;;;;;;;;;;5071665;28;20059;-58
2023/09/27 05:06:49;;;;;;;5.03;2.00;;;;;;;;;;5072428;28;20114;-57
2023/09/27 05:09:18;;;;;;;4.75;2.65;;;;;;;;;;5090329;28;20052;-57
2023/09/27 05:11:46;;;;;;;4.03;2.85;;;;;;;;;;5091372;28;20059;-57
2023/09/27 05:14:13;;;;;;;3.33;2.10;;;;;;;;;;5087699;28;20051;-57
2023/09/27 05:16:40;;;;;;;3.42;2.22;;;;;;;;;;5090384;28;20063;-58
2023/09/27 05:19:07;;;;;;;4.43;2.67;;;;;;;;;;5091942;28;20485;-57
2023/09/27 05:21:33;;;;;;;3.58;2.33;;;;;;;;;;5091890;28;20048;-58
2023/09/27 05:24:02;;;;;;;4.35;2.30;;;;;;;;;;5088513;28;20052;-58
2023/09/27 05:26:29;;;;;;;4.45;1.80;;;;;;;;;;5089206;28;20048;-58
2023/09/27 05:28:56;;;;;;;3.25;2.05;;;;;;;;;;5088232;28;20440;-58
2023/09/27 05:31:23;;;;;;;4.32;2.88;;;;;;;;;;5093805;28;20055;-57
2023/09/27 05:33:50;;;;;;;5.25;2.20;;;;;;;;;;5096635;28;20083;-58
2023/09/27 05:36:16;;;;;;;5.47;2.97;;;;;;;;;;5080287;28;20064;-58
2023/09/27 05:38:44;;;;;;;5.03;2.78;;;;;;;;;;5087043;28;20048;-57
2023/09/27 05:41:12;;;;;;;6.10;1.95;;;;;;;;;;5086293;28;20055;-57
2023/09/27 05:43:39;;;;;;;3.30;2.38;;;;;;;;;;5092050;28;20394;-57
2023/09/27 05:46:06;;;;;;;4.07;2.28;;;;;;;;;;5082208;28;20485;-58
2023/09/27 05:48:33;;;;;;;4.13;2.10;;;;;;;;;;5091113;28;20052;-58
2023/09/27 05:51:00;;;;;;;3.70;2.33;;;;;;;;;;5094090;28;20400;-58
2023/09/27 05:53:27;;;;;;;3.88;2.20;;;;;;;;;;5082779;28;20056;-57
2023/09/27 05:55:55;;;;;;;3.53;2.40;;;;;;;;;;5083981;28;20059;-57
2023/09/27 05:58:23;;;;;;;3.45;2.10;;;;;;;;;;5075412;28;20060;-60
2023/09/27 06:00:51;;;;;;;3.80;2.25;;;;;;;;;;5084730;28;20053;-58
2023/09/27 06:03:18;;;;;;;4.47;3.13;;;;;;;;;;5077962;28;20056;-58
2023/09/27 06:05:45;;;;;;;5.07;3.10;;;;;;;;;;5076341;28;20520;-57
2023/09/27 06:08:12;;;;;;;4.20;2.50;;;;;;;;;;5084869;28;20374;-58
2023/09/27 06:10:40;;;;;;;10.48;3.05;;;;;;;;;;5094701;28;20519;-57
2023/09/27 06:13:07;;;;;;;4.10;2.92;;;;;;;;;;5095594;28;20059;-58
2023/09/27 06:15:35;;;;;;;4.65;2.55;;;;;;;;;;5078876;28;20055;-58
2023/09/27 06:18:03;;;;;;;3.55;2.72;;;;;;;;;;5090990;28;20055;-58
2023/09/27 06:20:30;;;;;;;5.05;3.00;;;;;;;;;;5084627;28;20509;-57
2023/09/27 06:23:03;;;;;;;4.13;2.65;;;;;;;;;;5075593;28;20056;-58
2023/09/27 06:25:30;;;;;;;8.40;2.95;;;;;;;;;;5075499;28;20063;-57
2023/09/27 06:27:57;;;;;;;3.25;2.60;;;;;;;;;;5075009;28;20052;-58
2023/09/27 06:30:24;;;;;;;4.53;2.00;;;;;;;;;;5077263;28;20055;-57
2023/09/27 06:32:52;;;;;;;4.32;2.38;;;;;;;;;;5095902;28;20055;-57
2023/09/27 06:35:19;;;;;;;3.13;2.15;;;;;;;;;;5095588;28;20051;-58
2023/09/27 06:37:48;;;;;;;4.13;2.50;;;;;;;;;;5095576;28;20074;-58
2023/09/27 06:40:16;;;;;;;2.55;1.70;;;;;;;;;;5079371;28;20045;-58
2023/09/27 06:42:43;;;;;;;2.95;1.50;;;;;;;;;;5074293;28;20413;-58
2023/09/27 06:45:12;;;;;;;4.28;2.25;;;;;;;;;;5086043;28;20052;-59
2023/09/27 06:47:41;;;;;;;2.65;1.90;;;;;;;;;;5095254;28;20056;-58
2023/09/27 06:50:10;;;;;;;2.97;1.93;;;;;;;;;;5080763;28;20048;-58
2023/09/27 06:52:39;;;;;;;3.30;1.88;;;;;;;;;;5075221;28;20057;-58
2023/09/27 06:55:10;;;;;;;3.42;2.13;;;;;;;;;;5074868;28;20053;-58
2023/09/27 06:57:37;;;;;;;3.60;2.17;;;;;;;;;;5075064;28;20064;-58
2023/09/27 07:00:10;;;;;;;4.38;2.40;;;;;;;;;;5085925;28;20048;-58
2023/09/27 07:02:41;;;;;;;2.58;2.20;;;;;;;;;;5077715;28;20075;-59
2023/09/27 07:05:08;;;;;;;3.13;2.22;;;;;;;;;;5095159;28;20063;-58
2023/09/27 07:07:36;;;;;;;3.42;2.08;;;;;;;;;;5094918;28;20052;-58
2023/09/27 07:10:03;;;;;;;2.92;2.10;;;;;;;;;;5081488;28;20405;-58
2023/09/27 07:12:30;;;;;;;4.13;2.65;;;;;;;;;;5074644;28;20055;-59
2023/09/27 07:14:58;;;;;;;5.97;2.92;;;;;;;;;;5074979;28;20048;-58
2023/09/27 07:17:25;;;;;;;5.28;3.17;;;;;;;;;;5074556;28;20478;-58
2023/09/27 07:19:53;;;;;;;3.63;2.65;;;;;;;;;;5074061;28;20059;-59
2023/09/27 07:22:19;;;;;;;6.65;3.30;;;;;;;;;;5074637;28;20072;-58
2023/09/27 07:24:48;;;;;;;3.70;3.05;;;;;;;;;;5073807;28;20060;-59
2023/09/27 07:27:15;;;;;;;7.78;3.08;;;;;;;;;;5074027;28;20056;-58
2023/09/27 07:29:42;;;;;;;3.28;2.13;;;;;;;;;;5081617;28;20048;-59
2023/09/27 07:32:10;;;;;;;4.10;2.63;;;;;;;;;;5094580;28;20047;-58
2023/09/27 07:34:37;;;;;;;3.80;2.30;;;;;;;;;;5094205;28;20052;-59
2023/09/27 07:37:05;;;;;;;4.10;2.58;;;;;;;;;;5092435;28;20048;-59
2023/09/27 07:39:33;;;;;;;6.07;3.25;;;;;;;;;;5093453;28;20052;-59
2023/09/27 07:42:01;;;;;;;4.32;2.33;;;;;;;;;;5090885;28;20415;-58
2023/09/27 07:44:32;;;;;;;4.90;2.88;;;;;;;;;;5074438;28;20052;-58
2023/09/27 07:46:59;;;;;;;6.70;3.30;;;;;;;;;;5074329;28;20048;-58
2023/09/27 07:49:26;;;;;;;4.38;2.70;;;;;;;;;;5074533;28;20059;-58
2023/09/27 07:51:53;;;;;;;6.28;3.55;;;;;;;;;;5074108;28;20045;-58
2023/09/27 07:54:21;;;;;;;7.55;3.50;;;;;;;;;;5073542;28;20063;-59
2023/09/27 07:56:48;;;;;;;5.18;2.85;;;;;;;;;;5074071;28;20407;-58
2023/09/27 07:59:17;;;;;;;4.78;3.13;;;;;;;;;;5074585;28;20048;-59
2023/09/27 08:01:44;;;;;;;5.07;2.67;;;;;;;;;;5073571;28;20048;-58
2023/09/27 08:04:12;;;;;;;4.05;2.88;;;;;;;;;;5073671;28;20063;-59
2023/09/27 08:06:39;;;;;;;6.10;3.97;;;;;;;;;;5073810;28;20052;-58
2023/09/27 08:09:07;;;;;;;7.13;3.63;;;;;;;;;;5073753;28;20071;-59
2023/09/27 08:11:34;;;;;;;7.82;3.75;;;;;;;;;;5073229;28;20056;-59
2023/09/27 08:14:00;;;;;;;5.05;3.50;;;;;;;;;;5077684;28;20052;-59
2023/09/27 08:16:29;;;;;;;5.53;3.53;;;;;;;;;;5092124;28;20048;-59
2023/09/27 08:18:56;;;;;;;9.33;2.87;;;;;;;;;;5093365;28;20059;-58
2023/09/27 08:21:23;;;;;;;4.20;3.33;;;;;;;;;;5093621;28;20501;-58
2023/09/27 08:23:52;;;;;;;8.63;3.03;;;;;;;;;;5093405;28;20060;-58
2023/09/27 08:26:19;;;;;;;3.83;2.55;;;;;;;;;;5083193;28;20484;-59
2023/09/27 08:28:46;;;;;;;5.93;4.18;;;;;;;;;;5084540;28;20405;-59
2023/09/27 08:31:13;;;;;;;4.72;2.92;;;;;;;;;;5092903;28;20055;-59
2023/09/27 08:33:41;;;;;;;5.90;3.40;;;;;;;;;;5093114;28;20056;-59
2023/09/27 08:36:08;;;;;;;5.50;2.80;;;;;;;;;;5084971;28;20071;-59
2023/09/27 08:38:35;;;;;;;4.40;2.95;;;;;;;;;;5084497;28;20056;-59
2023/09/27 08:41:03;;;;;;;4.80;3.70;;;;;;;;;;5093234;28;20488;-59
2023/09/27 08:43:31;;;;;;;5.18;3.55;;;;;;;;;;5083774;28;20064;-59
2023/09/27 08:45:59;;;;;;;4.70;3.40;;;;;;;;;;5073117;28;20493;-59
2023/09/27 08:48:28;;;;;;;6.13;3.87;;;;;;;;;;5079891;28;20059;-59
2023/09/27 08:50:56;;;;;;;4.93;2.95;;;;;;;;;;5092822;28;20055;-59
2023/09/27 08:53:24;;;;;;;7.57;3.20;;;;;;;;;;5085422;28;20067;-57
2023/09/27 08:55:50;;;;;;;6.63;2.70;;;;;;;;;;5083186;28;20063;-57
2023/09/27 08:58:18;;;;;;;5.10;3.88;;;;;;;;;;5087994;28;20048;-59
2023/09/27 09:00:45;;;;;;;4.57;2.53;;;;;;;;;;5080842;28;20048;-59
2023/09/27 09:03:12;;;;;;;4.90;2.53;;;;;;;;;;5093161;28;20055;-59
2023/09/27 09:05:39;;;;;;;3.58;2.33;;;;;;;;;;5088964;28;20063;-59
2023/09/27 09:08:09;;;;;;;3.67;2.08;;;;;;;;;;5093116;28;20056;-59
2023/09/27 09:10:37;;;;;;;3.03;2.10;;;;;;;;;;5093008;28;20052;-57
2023/09/27 09:13:04;;;;;;;2.03;1.48;;;;;;;;;;5091620;28;20484;-57
2023/09/27 09:15:35;;;;;;;4.57;2.55;;;;;;;;;;5072558;28;20437;-58
2023/09/27 09:18:06;;;;;;;5.28;2.67;;;;;;;;;;5073024;28;20060;-57
2023/09/27 09:20:48;;;;;;;3.30;2.13;;;;;;;;;;5072404;28;20055;-57
2023/09/27 09:23:29;;;;;;;3.13;2.53;;;;;;;;;;5076350;28;20513;-57
2023/09/27 09:25:57;;;;;;;2.70;1.75;;;;;;;;;;5084617;28;20049;-57
2023/09/27 09:28:24;;;;;;;2.30;1.50;;;;;;;;;;5073182;28;20058;-57
2023/09/27 09:30:51;;;;;;;3.27;1.30;;;;;;;;;;5072551;28;20435;-57
2023/09/27 09:33:19;;;;;;;1.90;1.10;;;;;;;;;;5092516;28;20485;-58
2023/09/27 09:35:47;;;;;;;2.80;1.73;;;;;;;;;;5092923;28;20056;-57
2023/09/27 09:38:14;;;;;;;2.35;1.33;;;;;;;;;;5092884;28;20052;-57
2023/09/27 09:40:56;;;;;;;3.30;1.40;;;;;;;;;;5091402;28;20052;-57
2023/09/27 09:43:34;;;;;;;1.98;1.20;;;;;;;;;;5089182;28;20044;-62
2023/09/27 09:46:03;;;;;;;3.40;1.38;;;;;;;;;;5044435;28;20057;-58
2023/09/27 09:48:29;;;;;;;;;;;;;;;;;;5053011;28;20056;-58
2023/09/27 09:51:00;;;;;;;3.08;1.35;;;;;;;;;;5052223;28;19928;-58
2023/09/27 09:53:28;;;;;;;2.30;1.33;;;;;;;;;;5052372;28;20490;-58
2023/09/27 09:55:55;;;;;;;;;;;;;;;;;;5040894;28;20080;-58
2023/09/27 09:58:25;;;;;;;3.45;1.52;;;;;;;;;;5032487;28;19932;-58
2023/09/27 10:00:54;;;;;;;1.90;1.23;;;;;;;;;;5049712;28;20057;-57
2023/09/27 10:03:22;;;;;;;3.00;1.35;;;;;;;;;;5051875;28;20494;-58
2023/09/27 10:05:51;;;;;;;2.25;1.35;;;;;;;;;;5041186;28;20067;-58
2023/09/27 10:08:18;;;;;;;2.55;1.20;;;;;;;;;;5032695;28;20403;-57
2023/09/27 10:10:45;;;;;;;3.57;1.47;;;;;;;;;;5032535;28;20072;-58
2023/09/27 10:13:13;;;;;;;2.42;1.25;;;;;;;;;;5032488;28;20148;-58
2023/09/27 10:15:41;;;;;;;2.00;1.48;;;;;;;;;;5045083;28;20060;-58
2023/09/27 10:18:26;;;;;;;2.13;1.25;;;;;;;;;;5055579;28;20399;-58
2023/09/27 10:21:03;;;;;;;2.00;1.20;;;;;;;;;;5055438;28;20060;-58
2023/09/27 10:23:33;;;;;;;2.60;1.45;;;;;;;;;;5055272;28;20052;-58
2023/09/27 10:26:15;;;;;;;6.10;1.30;;;;;;;;;;5045364;28;20052;-58
2023/09/27 10:28:57;;;;;;;3.50;1.13;;;;;;;;;;5035419;28;20064;-58
2023/09/27 10:31:24;;;;;;;2.00;1.23;;;;;;;;;;5040383;28;20496;-58
2023/09/27 10:33:50;;;;;;;4.10;1.23;;;;;;;;;;5055179;28;20051;-58
2023/09/27 10:36:29;;;;;;;2.40;1.42;;;;;;;;;;5034960;28;20060;-58
2023/09/27 10:39:07;;;;;;;3.10;1.60;;;;;;;;;;5035199;28;20049;-57
2023/09/27 10:41:46;;;;;;;2.45;1.50;;;;;;;;;;5035098;28;20060;-58
2023/09/27 10:44:13;;;;;;;2.53;1.20;;;;;;;;;;5046871;28;20068;-58
2023/09/27 10:46:41;;;;;;;2.03;1.20;;;;;;;;;;5074500;28;20059;-58
2023/09/27 10:49:08;;;;;;;3.50;1.42;;;;;;;;;;5074945;28;20059;-58
2023/09/27 10:51:36;;;;;;;2.05;1.20;;;;;;;;;;5076784;28;20059;-57
2023/09/27 10:54:06;;;;;;;2.10;1.30;;;;;;;;;;5079853;28;20045;-58
2023/09/27 10:56:33;;;;;;;2.40;1.23;;;;;;;;;;5093187;28;20055;-58
2023/09/27 10:58:59;;;;;;;1.73;1.20;;;;;;;;;;5094627;28;20074;-58
2023/09/27 11:01:26;;;;;;;2.55;1.30;;;;;;;;;;5092744;28;20048;-58
2023/09/27 11:03:58;;;;;;;1.98;1.35;;;;;;;;;;5094089;28;20048;-58
2023/09/27 11:06:25;;;;;;;2.45;1.40;;;;;;;;;;5094662;28;20059;-58
2023/09/27 11:09:03;;;;;;;3.35;1.58;;;;;;;;;;5084499;28;20055;-58
2023/09/27 11:11:30;;;;;;;1.58;1.10;;;;;;;;;;5094931;28;20059;-59
2023/09/27 11:13:56;;;;;;;1.90;1.30;;;;;;;;;;5094553;28;20405;-58
2023/09/27 11:16:24;;;;;;;2.13;1.23;;;;;;;;;;5079175;28;20060;-58
2023/09/27 11:18:52;;;;;;;3.58;1.60;;;;;;;;;;5074846;28;21005;-58
2023/09/27 11:21:19;;;;;;;1.80;1.30;;;;;;;;;;5074512;28;20056;-58
2023/09/27 11:23:54;;;;;;;1.95;1.00;;;;;;;;;;5074482;28;20053;-59
2023/09/27 11:26:21;;;;;;;2.35;1.05;;;;;;;;;;5074320;28;20107;-59
2023/09/27 11:28:56;;;;;;;2.22;1.30;;;;;;;;;;5073954;28;20055;-59
2023/09/27 11:31:23;;;;;;;1.60;0.75;;;;;;;;;;5086642;28;20052;-58
2023/09/27 11:33:49;;;;;;;2.60;1.30;;;;;;;;;;5094253;28;20409;-59
2023/09/27 11:36:16;;;;;;;2.75;1.58;;;;;;;;;;5079260;28;20060;-59
2023/09/27 11:38:48;;;;;;;3.08;1.05;;;;;;;;;;5074658;28;20060;-58
2023/09/27 11:41:16;;;;;;;2.47;1.33;;;;;;;;;;5074156;28;20486;-59
2023/09/27 11:43:43;;;;;;;2.72;1.30;;;;;;;;;;5073540;28;20512;-58
2023/09/27 11:46:10;;;;;;;3.30;1.30;;;;;;;;;;5080706;28;20055;-59
2023/09/27 11:48:37;;;;;;;2.07;1.00;;;;;;;;;;5094521;28;20404;-59
2023/09/27 11:51:04;;;;;;;5.03;1.73;;;;;;;;;;5093709;28;20477;-59
2023/09/27 11:53:31;;;;;;;2.75;1.38;;;;;;;;;;5093790;28;20482;-58
2023/09/27 11:55:59;;;;;;;2.45;1.40;;;;;;;;;;5085351;28;20055;-58
2023/09/27 11:58:27;;;;;;;3.35;1.52;;;;;;;;;;5074151;28;20056;-59
2023/09/27 12:00:54;;;;;;;2.50;1.20;;;;;;;;;;5077559;28;20048;-59
2023/09/27 12:03:20;;;;;;;2.67;1.70;;;;;;;;;;5093912;28;20457;-59
2023/09/27 12:05:48;;;;;;;3.23;1.07;;;;;;;;;;5087386;28;20493;-59
2023/09/27 12:08:14;;;;;;;2.22;0.93;;;;;;;;;;5073981;28;20497;-59
2023/09/27 12:10:41;;;;;;;2.60;1.10;;;;;;;;;;5073734;28;20505;-59
2023/09/27 12:13:08;;;;;;;1.90;1.10;;;;;;;;;;5073792;28;20498;-60
2023/09/27 12:15:36;;;;;;;2.17;1.33;;;;;;;;;;5075498;28;20071;-59
2023/09/27 12:18:03;;;;;;;1.45;0.82;;;;;;;;;;5093671;28;20052;-59
2023/09/27 12:20:30;;;;;;;2.10;1.07;;;;;;;;;;5093475;28;20063;-60
2023/09/27 12:22:57;;;;;;;14.10;1.73;;;;;;;;;;5094091;28;20048;-59
2023/09/27 12:25:24;;;;;;;4.38;1.83;;;;;;;;;;5076625;28;20059;-59
2023/09/27 12:27:51;;;;;;;1.65;1.25;;;;;;;;;;5073798;28;20055;-59
2023/09/27 12:30:18;;;;;;;3.25;1.23;;;;;;;;;;5072913;28;20057;-59
2023/09/27 12:32:46;;;;;;;1.63;1.07;;;;;;;;;;5074158;28;20057;-59
2023/09/27 12:35:13;;;;;;;2.13;1.23;;;;;;;;;;5072993;28;20055;-59
2023/09/27 12:37:40;;;;;;;12.40;1.92;;;;;;;;;;5073394;28;20465;-59
2023/09/27 12:40:07;;;;;;;2.08;1.27;;;;;;;;;;5072348;28;20053;-58
2023/09/27 12:42:34;;;;;;;1.92;1.17;;;;;;;;;;5073038;28;20049;-58
2023/09/27 12:45:01;;;;;;;3.30;1.30;;;;;;;;;;5073813;28;20060;-59
2023/09/27 12:47:28;;;;;;;2.45;1.20;;;;;;;;;;5091014;28;20071;-59
2023/09/27 12:49:57;;;;;;;1.88;1.23;;;;;;;;;;5093008;28;20059;-58
2023/09/27 12:52:27;;;;;;;2.63;1.00;;;;;;;;;;5075511;28;20059;-59
2023/09/27 12:55:00;;;;;;;2.00;0.93;;;;;;;;;;5072965;28;20053;-59
2023/09/27 12:57:27;;;;;;;2.08;1.30;;;;;;;;;;5072782;28;20393;-59
2023/09/27 12:59:56;;;;;;;2.20;1.47;;;;;;;;;;5072528;28;20057;-59
2023/09/27 13:02:27;;;;;;;1.70;1.00;;;;;;;;;;5087522;28;20059;-58
2023/09/27 13:04:54;;;;;;;1.63;0.98;;;;;;;;;;5092494;28;20052;-59
2023/09/27 13:07:22;;;;;;;1.43;0.93;;;;;;;;;;5093024;28;20496;-59
2023/09/27 13:09:49;;;;;;;1.52;0.98;;;;;;;;;;5092567;28;20048;-59
2023/09/27 13:12:23;;;;;;;2.23;1.50;;;;;;;;;;5090575;28;20051;-59
2023/09/27 13:14:50;;;;;;;2.65;1.25;;;;;;;;;;5092834;28;20048;-59
2023/09/27 13:17:17;;;;;;;1.80;1.13;;;;;;;;;;5079152;28;20056;-60
2023/09/27 13:19:47;;;;;;;2.85;1.00;;;;;;;;;;5072176;28;20052;-60
2023/09/27 13:22:14;;;;;;;1.38;0.90;;;;;;;;;;5072493;28;20056;-59
2023/09/27 13:24:43;;;;;;;1.67;1.35;;;;;;;;;;5072869;28;20052;-59
2023/09/27 13:27:10;;;;;;;2.55;1.20;;;;;;;;;;5072768;28;20058;-59
2023/09/27 13:29:39;;;;;;;3.35;1.38;;;;;;;;;;5072717;28;20059;-58
2023/09/27 13:32:06;;;;;;;2.53;1.30;;;;;;;;;;5073348;28;20405;-58
2023/09/27 13:34:33;;;;;;;2.30;1.27;;;;;;;;;;5072491;28;20056;-59
2023/09/27 13:37:00;;;;;;;1.75;1.23;;;;;;;;;;5072469;28;20063;-58
2023/09/27 13:39:29;;;;;;;1.90;1.40;;;;;;;;;;5072200;28;20075;-58
2023/09/27 13:41:57;;;;;;;1.85;1.10;;;;;;;;;;5082980;28;20067;-58
2023/09/27 13:44:24;;;;;;;1.65;1.08;;;;;;;;;;5084829;28;20049;-58
2023/09/27 13:46:51;;;;;;;2.00;1.40;;;;;;;;;;5080298;28;20055;-58
2023/09/27 13:49:20;;;;;;;1.98;1.10;;;;;;;;;;5072272;28;20144;-58
2023/09/27 13:51:47;;;;;;;1.98;1.20;;;;;;;;;;5082116;28;20098;-57
2023/09/27 13:54:14;;;;;;;2.03;1.20;;;;;;;;;;5096255;28;20074;-58
2023/09/27 13:56:41;;;;;;;2.10;1.23;;;;;;;;;;5096003;28;20477;-58
2023/09/27 13:59:09;;;;;;;2.55;1.55;;;;;;;;;;5096329;28;20424;-57
2023/09/27 14:01:36;;;;;;;3.10;1.40;;;;;;;;;;5089292;28;20056;-58
2023/09/27 14:04:03;;;;;;;1.80;1.20;;;;;;;;;;5076279;28;20048;-59
2023/09/27 14:06:30;;;;;;;2.58;1.23;;;;;;;;;;5076071;28;20060;-59
2023/09/27 14:08:58;;;;;;;2.88;1.45;;;;;;;;;;5076055;28;20049;-58
2023/09/27 14:11:25;;;;;;;2.63;1.40;;;;;;;;;;5081246;28;20399;-59
2023/09/27 14:13:52;;;;;;;2.05;1.20;;;;;;;;;;5096353;28;20044;-59
2023/09/27 14:16:20;;;;;;;3.15;1.40;;;;;;;;;;5094354;28;20060;-59
2023/09/27 14:18:47;;;;;;;2.40;1.48;;;;;;;;;;5096317;28;20056;-59
2023/09/27 14:21:14;;;;;;;2.60;1.10;;;;;;;;;;5091507;28;20044;-59
2023/09/27 14:23:42;;;;;;;1.70;1.30;;;;;;;;;;5075633;28;20496;-59
2023/09/27 14:26:09;;;;;;;2.50;1.33;;;;;;;;;;5075729;28;20060;-59
2023/09/27 14:28:35;;;;;;;3.08;1.45;;;;;;;;;;5083627;28;20060;-59
2023/09/27 14:31:02;;;;;;;3.75;1.40;;;;;;;;;;5095302;28;20056;-59
2023/09/27 14:33:30;;;;;;;2.03;1.52;;;;;;;;;;5092586;28;20048;-59
2023/09/27 14:35:59;;;;;;;1.58;1.30;;;;;;;;;;5095330;28;20481;-59
2023/09/27 14:38:26;;;;;;;2.67;1.10;;;;;;;;;;5095581;28;20432;-58
2023/09/27 14:40:53;;;;;;;2.17;1.38;;;;;;;;;;5094058;28;20048;-58
2023/09/27 14:43:19;;;;;;;2.78;1.50;;;;;;;;;;5091042;28;20099;-58
2023/09/27 14:45:46;;;;;;;1.98;1.17;;;;;;;;;;5094884;28;20048;-58
2023/09/27 14:48:14;;;;;;;1.83;1.30;;;;;;;;;;5091741;28;20044;-59